createdAt,value
2019-06-26T00:00:18.680Z,25.50
2019-06-26T00:02:47.176Z,25.50
2019-06-26T00:05:15.760Z,25.60
2019-06-26T00:07:44.306Z,25.60
2019-06-26T00:10:13.084Z,25.50
2019-06-26T00:12:41.511Z,25.50
2019-06-26T00:15:10.997Z,25.50
2019-06-26T00:17:39.421Z,25.50
2019-06-26T00:20:08.403Z,25.60
2019-06-26T00:22:36.863Z,25.60
2019-06-26T00:25:09.687Z,25.60
2019-06-26T00:27:38.127Z,25.50
2019-06-26T00:30:11.242Z,25.50
2019-06-26T00:32:39.735Z,25.50
2019-06-26T00:35:08.356Z,25.40
2019-06-26T00:37:36.782Z,25.40
2019-06-26T00:40:08.610Z,25.40
2019-06-26T00:42:37.036Z,25.30
2019-06-26T00:45:09.117Z,25.30
2019-06-26T00:47:37.559Z,25.30
2019-06-26T00:50:08.535Z,25.30
2019-06-26T00:52:37.048Z,25.30
2019-06-26T00:55:07.238Z,25.20
2019-06-26T00:57:35.800Z,25.20
2019-06-26T01:00:09.921Z,25.20
2019-06-26T01:02:38.462Z,25.20
2019-06-26T01:05:11.678Z,25.20
2019-06-26T01:07:40.328Z,25.10
2019-06-26T01:10:10.320Z,25.10
2019-06-26T01:12:38.816Z,25.10
2019-06-26T01:15:08.409Z,25.10
2019-06-26T01:17:36.846Z,25.00
2019-06-26T01:20:09.005Z,25.00
2019-06-26T01:22:37.461Z,24.90
2019-06-26T01:25:06.247Z,24.90
2019-06-26T01:27:34.664Z,24.90
2019-06-26T01:30:04.547Z,24.80
2019-06-26T01:32:32.991Z,24.70
2019-06-26T01:35:01.438Z,24.70
2019-06-26T01:37:29.954Z,24.60
2019-06-26T01:39:58.394Z,24.60
2019-06-26T01:42:26.818Z,24.50
2019-06-26T01:44:55.265Z,24.50
2019-06-26T01:47:23.691Z,24.50
2019-06-26T01:49:52.154Z,24.50
2019-06-26T01:52:20.576Z,24.40
2019-06-26T01:54:49.028Z,24.30
2019-06-26T01:57:17.448Z,24.30
2019-06-26T01:59:45.899Z,24.20
2019-06-26T02:02:14.375Z,24.20
2019-06-26T02:04:42.857Z,24.20
2019-06-26T02:07:11.285Z,24.10
2019-06-26T02:09:39.723Z,24.10
2019-06-26T02:12:08.162Z,24.10
2019-06-26T02:14:36.664Z,24.00
2019-06-26T02:17:05.131Z,24.00
2019-06-26T02:19:33.670Z,24.00
2019-06-26T02:22:02.100Z,23.90
2019-06-26T02:24:30.540Z,23.90
2019-06-26T02:26:58.965Z,23.90
2019-06-26T02:29:27.415Z,23.90
2019-06-26T02:31:55.913Z,23.90
2019-06-26T02:34:24.367Z,23.90
2019-06-26T02:36:52.798Z,23.80
2019-06-26T02:39:21.836Z,23.90
2019-06-26T02:41:50.255Z,23.90
2019-06-26T02:44:18.711Z,23.80
2019-06-26T02:46:47.147Z,23.80
2019-06-26T02:49:15.568Z,23.80
2019-06-26T02:51:44.018Z,23.80
2019-06-26T02:54:12.460Z,23.80
2019-06-26T02:56:40.888Z,23.80
2019-06-26T02:59:09.346Z,23.70
2019-06-26T03:01:37.847Z,23.70
2019-06-26T03:04:06.361Z,23.60
2019-06-26T03:06:34.804Z,23.60
2019-06-26T03:09:03.389Z,23.50
2019-06-26T03:11:31.852Z,23.50
2019-06-26T03:14:00.269Z,23.50
2019-06-26T03:16:28.710Z,23.50
2019-06-26T03:18:57.154Z,23.50
2019-06-26T03:21:25.607Z,23.50
2019-06-26T03:23:54.034Z,23.50
2019-06-26T03:26:22.485Z,23.50
2019-06-26T03:28:50.987Z,23.50
2019-06-26T03:31:19.505Z,23.60
2019-06-26T03:33:47.933Z,23.60
2019-06-26T03:39:45.413Z,23.70
2019-06-26T03:42:13.867Z,23.70
2019-06-26T03:44:42.323Z,23.80
2019-06-26T03:47:10.844Z,23.80
2019-06-26T03:49:39.296Z,23.90
2019-06-26T03:52:07.727Z,24.00
2019-06-26T03:54:36.174Z,24.10
2019-06-26T03:57:04.622Z,24.10
2019-06-26T03:59:33.036Z,24.10
2019-06-26T04:02:01.492Z,24.20
2019-06-26T04:04:29.910Z,24.20
2019-06-26T04:06:58.364Z,24.20
2019-06-26T04:09:26.827Z,24.30
2019-06-26T04:11:55.255Z,24.50
2019-06-26T04:14:23.722Z,24.70
2019-06-26T04:16:52.151Z,24.90
2019-06-26T04:19:20.598Z,25.20
2019-06-26T04:21:49.048Z,25.40
2019-06-26T04:24:17.487Z,25.60
2019-06-26T04:26:45.941Z,25.70
2019-06-26T04:29:14.364Z,25.80
2019-06-26T04:31:42.805Z,26.00
2019-06-26T04:34:11.292Z,26.10
2019-06-26T04:36:39.783Z,26.00
2019-06-26T04:39:08.928Z,26.00
2019-06-26T04:41:37.420Z,26.00
2019-06-26T04:44:05.904Z,26.00
2019-06-26T04:46:34.353Z,26.00
2019-06-26T04:49:02.787Z,26.00
2019-06-26T04:51:31.221Z,26.00
2019-06-26T04:53:59.657Z,26.10
2019-06-26T04:56:28.080Z,26.10
2019-06-26T04:58:56.523Z,26.20
2019-06-26T05:01:25.044Z,26.30
2019-06-26T05:03:53.465Z,26.30
2019-06-26T05:06:21.911Z,26.40
2019-06-26T05:08:50.366Z,26.50
2019-06-26T05:11:18.882Z,26.60
2019-06-26T05:13:47.387Z,26.70
2019-06-26T05:16:20.070Z,26.80
2019-06-26T05:18:46.021Z,26.90
2019-06-26T05:21:14.439Z,27.10
2019-06-26T05:23:42.907Z,27.20
2019-06-26T05:26:11.404Z,27.30
2019-06-26T05:28:39.827Z,27.40
2019-06-26T05:31:08.267Z,27.50
2019-06-26T05:33:36.730Z,27.60
2019-06-26T05:36:05.166Z,27.60
2019-06-26T05:38:33.608Z,27.70
2019-06-26T05:41:02.068Z,27.60
2019-06-26T05:43:30.502Z,27.70
2019-06-26T05:45:59.007Z,27.80
2019-06-26T05:48:27.428Z,27.80
2019-06-26T05:50:55.878Z,27.90
2019-06-26T05:53:24.308Z,28.00
2019-06-26T05:55:52.779Z,28.10
2019-06-26T05:58:21.230Z,28.30
2019-06-26T06:00:49.733Z,28.40
2019-06-26T06:03:18.183Z,28.40
2019-06-26T06:05:46.603Z,28.50
2019-06-26T06:08:15.061Z,28.50
2019-06-26T06:10:43.783Z,28.60
2019-06-26T06:13:12.313Z,28.70
2019-06-26T06:15:40.996Z,28.70
2019-06-26T06:18:09.449Z,28.80
2019-06-26T06:20:39.411Z,28.80
2019-06-26T06:23:08.597Z,28.90
2019-06-26T06:25:37.084Z,28.90
2019-06-26T06:28:05.611Z,28.90
2019-06-26T06:30:34.057Z,28.80
2019-06-26T06:33:02.614Z,28.90
2019-06-26T06:35:31.246Z,29.00
2019-06-26T06:37:59.703Z,29.10
2019-06-26T06:40:28.126Z,29.10
2019-06-26T06:42:56.594Z,29.10
2019-06-26T06:45:25.288Z,29.20
2019-06-26T06:47:54.111Z,29.30
2019-06-26T06:50:22.832Z,29.40
2019-06-26T06:52:51.339Z,29.50
2019-06-26T06:55:20.528Z,29.50
2019-06-26T06:57:48.951Z,29.60
2019-06-26T07:00:17.731Z,29.60
2019-06-26T07:02:46.187Z,29.70
2019-06-26T07:05:14.995Z,29.80
2019-06-26T07:07:43.423Z,29.90
2019-06-26T07:10:12.106Z,30.00
2019-06-26T07:12:40.524Z,30.10
2019-06-26T07:15:09.915Z,30.30
2019-06-26T07:17:38.351Z,30.40
2019-06-26T07:20:07.350Z,30.40
2019-06-26T07:22:35.832Z,30.40
2019-06-26T07:25:04.924Z,30.40
2019-06-26T07:27:33.356Z,30.50
2019-06-26T07:30:01.863Z,30.70
2019-06-26T07:32:30.350Z,30.80
2019-06-26T07:34:58.838Z,30.90
2019-06-26T07:37:27.288Z,31.00
2019-06-26T07:40:00.309Z,31.00
2019-06-26T07:42:25.888Z,30.90
2019-06-26T07:44:54.320Z,30.90
2019-06-26T07:47:28.222Z,30.90
2019-06-26T07:49:52.923Z,31.00
2019-06-26T07:52:21.467Z,30.90
2019-06-26T07:54:49.980Z,30.90
2019-06-26T07:57:18.406Z,31.00
2019-06-26T07:59:46.862Z,31.00
2019-06-26T08:02:15.303Z,31.10
2019-06-26T08:04:43.759Z,31.20
2019-06-26T08:07:12.204Z,31.10
2019-06-26T08:09:40.662Z,31.20
2019-06-26T08:12:09.248Z,31.20
2019-06-26T08:14:37.692Z,31.30
2019-06-26T08:17:06.092Z,31.30
2019-06-26T08:19:34.538Z,31.50
2019-06-26T08:22:02.995Z,31.60
2019-06-26T08:24:31.415Z,31.70
2019-06-26T08:26:59.937Z,31.90
2019-06-26T08:29:28.720Z,31.90
2019-06-26T08:31:57.185Z,32.00
2019-06-26T08:34:25.608Z,31.90
2019-06-26T08:36:54.062Z,31.90
2019-06-26T08:39:22.490Z,32.00
2019-06-26T08:41:50.943Z,32.00
2019-06-26T08:44:19.393Z,32.10
2019-06-26T08:46:47.844Z,32.20
2019-06-26T08:49:25.438Z,32.20
2019-06-26T08:51:46.442Z,32.30
2019-06-26T08:54:14.874Z,32.40
2019-06-26T08:56:43.393Z,32.50
2019-06-26T08:59:11.911Z,32.60
2019-06-26T09:01:40.336Z,32.70
2019-06-26T09:07:13.582Z,33.10
2019-06-26T09:09:42.031Z,33.40
2019-06-26T09:12:10.479Z,33.40
2019-06-26T09:14:38.895Z,33.40
2019-06-26T09:17:07.364Z,33.40
2019-06-26T09:19:35.779Z,33.40
2019-06-26T09:22:04.281Z,33.30
2019-06-26T09:24:32.731Z,33.10
2019-06-26T09:27:01.229Z,33.10
2019-06-26T09:29:29.675Z,33.10
2019-06-26T09:31:58.142Z,33.10
2019-06-26T09:34:26.575Z,33.00
2019-06-26T09:36:55.027Z,33.10
2019-06-26T09:39:24.023Z,33.20
2019-06-26T09:41:52.485Z,33.20
2019-06-26T09:44:20.907Z,33.30
2019-06-26T09:46:49.324Z,33.30
2019-06-26T09:49:17.770Z,33.30
2019-06-26T09:51:46.187Z,33.30
2019-06-26T09:54:14.649Z,33.40
2019-06-26T09:56:43.093Z,33.60
2019-06-26T09:59:11.584Z,33.80
2019-06-26T10:01:40.038Z,34.00
2019-06-26T10:04:08.496Z,34.00
2019-06-26T10:06:36.987Z,33.90
2019-06-26T10:09:07.856Z,33.90
2019-06-26T10:11:36.325Z,33.90
2019-06-26T10:14:05.415Z,33.90
2019-06-26T10:16:33.845Z,34.10
2019-06-26T10:19:10.321Z,34.20
2019-06-26T10:21:34.802Z,34.30
2019-06-26T10:24:03.235Z,34.30
2019-06-26T10:26:32.722Z,34.20
2019-06-26T10:29:01.504Z,34.10
2019-06-26T10:31:30.268Z,34.10
2019-06-26T10:33:59.078Z,34.10
2019-06-26T10:36:27.525Z,34.20
2019-06-26T10:38:55.955Z,34.20
2019-06-26T10:41:24.407Z,34.30
2019-06-26T10:43:52.841Z,34.30
2019-06-26T10:46:21.306Z,34.40
2019-06-26T10:48:49.744Z,34.50
2019-06-26T10:51:18.238Z,34.60
2019-06-26T10:53:46.683Z,34.60
2019-06-26T10:56:15.106Z,34.70
2019-06-26T10:58:43.552Z,34.70
2019-06-26T11:01:11.977Z,34.60
2019-06-26T11:03:40.504Z,34.50
2019-06-26T11:06:08.951Z,34.50
2019-06-26T11:08:37.376Z,34.60
2019-06-26T11:11:05.828Z,34.80
2019-06-26T11:13:34.270Z,34.80
2019-06-26T11:16:02.724Z,34.70
2019-06-26T11:18:31.255Z,34.80
2019-06-26T11:20:59.731Z,35.00
2019-06-26T11:23:28.163Z,35.00
2019-06-26T11:25:56.606Z,34.90
2019-06-26T11:28:25.020Z,34.80
2019-06-26T11:30:53.550Z,34.90
2019-06-26T11:33:22.036Z,34.90
2019-06-26T11:35:50.488Z,34.80
2019-06-26T11:38:18.999Z,34.70
2019-06-26T11:40:47.456Z,34.70
2019-06-26T11:43:15.962Z,34.60
2019-06-26T11:45:44.385Z,34.50
2019-06-26T11:48:12.867Z,34.50
2019-06-26T11:54:10.399Z,34.50
2019-06-26T11:56:38.844Z,34.50
2019-06-26T11:59:07.343Z,34.50
2019-06-26T12:01:35.857Z,34.40
2019-06-26T12:04:04.292Z,34.30
2019-06-26T12:06:32.782Z,34.30
2019-06-26T12:09:01.253Z,34.10
2019-06-26T12:11:29.705Z,34.10
2019-06-26T12:13:58.145Z,34.20
2019-06-26T12:16:26.587Z,34.20
2019-06-26T12:18:55.014Z,34.30
2019-06-26T12:21:24.305Z,34.50
2019-06-26T12:23:52.730Z,34.60
2019-06-26T12:26:21.190Z,34.50
2019-06-26T12:28:50.220Z,34.60
2019-06-26T12:31:18.803Z,34.50
2019-06-26T12:33:47.324Z,34.50
2019-06-26T12:36:15.786Z,34.50
2019-06-26T12:38:44.276Z,34.60
2019-06-26T12:41:12.735Z,34.70
2019-06-26T12:43:41.159Z,34.80
2019-06-26T12:46:09.615Z,34.80
2019-06-26T12:48:38.067Z,34.80
2019-06-26T12:51:06.527Z,35.00
2019-06-26T12:53:35.125Z,34.90
2019-06-26T12:56:03.554Z,34.80
2019-06-26T12:58:31.974Z,34.40
2019-06-26T13:01:00.415Z,34.00
2019-06-26T13:03:28.835Z,33.90
2019-06-26T13:05:57.352Z,33.90
2019-06-26T13:08:25.787Z,34.00
2019-06-26T13:10:54.299Z,34.00
2019-06-26T13:13:22.725Z,34.00
2019-06-26T13:15:51.469Z,34.10
2019-06-26T13:18:20.096Z,34.20
2019-06-26T13:23:53.215Z,34.30
2019-06-26T13:26:21.661Z,34.30
2019-06-26T13:28:50.109Z,34.30
2019-06-26T13:31:18.682Z,34.20
2019-06-26T13:33:47.240Z,34.30
2019-06-26T13:36:15.667Z,34.20
2019-06-26T13:38:44.115Z,34.20
2019-06-26T13:41:12.537Z,34.20
2019-06-26T13:43:40.979Z,34.00
2019-06-26T13:46:09.403Z,34.00
2019-06-26T13:48:37.857Z,34.00
2019-06-26T13:51:09.927Z,34.00
2019-06-26T13:53:37.082Z,33.90
2019-06-26T13:56:05.577Z,33.80
2019-06-26T13:58:34.051Z,33.80
2019-06-26T14:01:02.483Z,33.80
2019-06-26T14:03:30.920Z,34.00
2019-06-26T14:05:59.347Z,34.00
2019-06-26T14:08:27.795Z,33.90
2019-06-26T14:10:56.219Z,33.70
2019-06-26T14:13:24.651Z,33.70
2019-06-26T14:15:53.243Z,33.90
2019-06-26T14:18:21.713Z,33.90
2019-06-26T14:20:50.224Z,33.80
2019-06-26T14:23:18.670Z,33.80
2019-06-26T14:25:47.090Z,33.80
2019-06-26T14:28:15.548Z,33.70
2019-06-26T14:30:43.977Z,33.80
2019-06-26T14:33:12.395Z,33.90
2019-06-26T14:35:40.847Z,33.60
2019-06-26T14:38:09.280Z,33.30
2019-06-26T14:40:37.728Z,33.10
2019-06-26T14:43:06.149Z,32.90
2019-06-26T14:45:34.599Z,32.80
2019-06-26T14:48:03.058Z,32.70
2019-06-26T14:50:31.480Z,32.70
2019-06-26T14:52:59.954Z,32.80
2019-06-26T14:55:28.556Z,32.60
2019-06-26T14:57:57.028Z,32.30
2019-06-26T15:00:25.851Z,32.20
2019-06-26T15:02:54.277Z,32.10
2019-06-26T15:05:22.702Z,32.20
2019-06-26T15:07:51.153Z,32.20
2019-06-26T15:10:19.952Z,32.10
2019-06-26T15:12:48.832Z,32.10
2019-06-26T15:15:17.686Z,32.00
2019-06-26T15:17:46.161Z,31.90
2019-06-26T15:20:16.152Z,31.80
2019-06-26T15:22:44.608Z,31.50
2019-06-26T15:25:13.387Z,31.30
2019-06-26T15:27:41.815Z,31.20
2019-06-26T15:30:11.708Z,31.10
2019-06-26T15:32:40.160Z,30.90
2019-06-26T15:35:09.492Z,30.80
2019-06-26T15:37:37.954Z,30.80
2019-06-26T15:40:07.721Z,30.80
2019-06-26T15:42:36.183Z,30.70
2019-06-26T15:45:06.248Z,30.50
2019-06-26T15:47:34.692Z,30.40
2019-06-26T15:50:11.009Z,30.40
2019-06-26T15:52:39.614Z,30.50
2019-06-26T15:55:08.151Z,30.60
2019-06-26T15:57:36.703Z,30.60
2019-06-26T16:00:06.727Z,30.50
2019-06-26T16:02:36.755Z,30.60
2019-06-26T16:05:06.861Z,30.60
2019-06-26T16:07:35.300Z,30.40
2019-06-26T16:10:06.663Z,30.10
2019-06-26T16:12:35.088Z,29.90
2019-06-26T16:15:04.378Z,29.90
2019-06-26T16:17:37.044Z,29.90
2019-06-26T16:20:07.218Z,29.70
2019-06-26T16:22:35.734Z,29.50
2019-06-26T16:25:05.165Z,29.40
2019-06-26T16:27:33.588Z,29.40
2019-06-26T16:30:02.079Z,29.40
2019-06-26T16:32:30.532Z,29.40
2019-06-26T16:34:59.057Z,29.30
2019-06-26T16:37:27.514Z,29.20
2019-06-26T16:39:55.985Z,29.10
2019-06-26T16:42:24.429Z,29.10
2019-06-26T16:44:53.565Z,29.00
2019-06-26T16:47:22.073Z,28.90
2019-06-26T16:49:50.565Z,28.80
2019-06-26T16:52:19.010Z,28.70
2019-06-26T16:54:48.275Z,28.60
2019-06-26T16:57:16.718Z,28.60
2019-06-26T16:59:45.160Z,28.50
2019-06-26T17:02:13.616Z,28.60
2019-06-26T17:04:42.148Z,28.50
2019-06-26T17:07:10.677Z,28.50
2019-06-26T17:09:39.099Z,28.40
2019-06-26T17:12:07.568Z,28.30
2019-06-26T17:14:35.990Z,28.30
2019-06-26T17:17:04.579Z,28.30
2019-06-26T17:19:33.027Z,28.30
2019-06-26T17:22:01.449Z,28.20
2019-06-26T17:24:29.895Z,28.20
2019-06-26T17:26:59.558Z,28.10
2019-06-26T17:29:28.146Z,28.00
2019-06-26T17:31:56.576Z,28.00
2019-06-26T17:34:27.169Z,28.00
2019-06-26T17:36:55.191Z,28.00
2019-06-26T17:39:23.708Z,27.80
2019-06-26T17:41:52.144Z,27.70
2019-06-26T17:44:20.585Z,27.60
2019-06-26T17:46:49.029Z,27.60
2019-06-26T17:49:17.460Z,27.60
2019-06-26T17:51:45.909Z,27.60
2019-06-26T17:54:14.329Z,27.50
2019-06-26T17:56:42.781Z,27.50
2019-06-26T17:59:11.208Z,27.40
2019-06-26T18:01:39.658Z,27.20
2019-06-26T18:04:08.218Z,27.10
2019-06-26T18:10:07.015Z,27.00
2019-06-26T18:12:35.474Z,26.90
2019-06-26T18:15:06.222Z,26.80
2019-06-26T18:17:34.797Z,26.80
2019-06-26T18:20:04.728Z,26.70
2019-06-26T18:22:33.181Z,26.70
2019-06-26T18:25:01.638Z,26.70
2019-06-26T18:27:30.096Z,26.60
2019-06-26T18:29:58.616Z,26.50
2019-06-26T18:32:27.133Z,26.50
2019-06-26T18:34:55.603Z,26.40
2019-06-26T18:37:24.122Z,26.30
2019-06-26T18:39:52.542Z,26.10
2019-06-26T18:42:20.977Z,26.10
2019-06-26T18:44:49.436Z,26.00
2019-06-26T18:47:17.849Z,26.00
2019-06-26T18:49:46.295Z,25.90
2019-06-26T18:52:15.895Z,25.80
2019-06-26T18:54:44.362Z,25.70
2019-06-26T18:57:12.780Z,25.70
2019-06-26T18:59:42.291Z,25.60
2019-06-26T19:02:10.889Z,25.50
2019-06-26T19:04:39.333Z,25.30
2019-06-26T19:07:07.759Z,25.20
2019-06-26T19:09:36.210Z,25.00
2019-06-26T19:12:04.704Z,25.00
2019-06-26T19:14:33.151Z,24.80
2019-06-26T19:17:01.580Z,24.70
2019-06-26T19:19:30.032Z,24.60
2019-06-26T19:21:58.454Z,24.50
2019-06-26T19:24:26.892Z,24.30
2019-06-26T19:26:55.343Z,24.30
2019-06-26T19:29:23.821Z,24.20
2019-06-26T19:31:52.269Z,24.10
2019-06-26T19:34:20.687Z,23.90
2019-06-26T19:36:50.646Z,23.90
2019-06-26T19:39:20.873Z,23.80
2019-06-26T19:41:49.576Z,23.60
2019-06-26T19:44:18.032Z,23.40
2019-06-26T19:46:46.456Z,23.30
2019-06-26T19:49:14.913Z,23.20
2019-06-26T19:51:43.365Z,23.10
2019-06-26T19:54:25.951Z,23.00
2019-06-26T19:56:41.960Z,22.90
2019-06-26T19:59:10.413Z,22.80
2019-06-26T20:01:38.921Z,22.70
2019-06-26T20:04:07.332Z,22.70
2019-06-26T20:06:35.783Z,22.60
2019-06-26T20:09:06.353Z,22.60
2019-06-26T20:11:34.799Z,22.60
2019-06-26T20:14:03.384Z,22.60
2019-06-26T20:16:31.843Z,22.50
2019-06-26T20:19:00.267Z,22.50
2019-06-26T20:21:29.055Z,22.40
2019-06-26T20:23:57.512Z,22.20
2019-06-26T20:26:25.972Z,22.10
2019-06-26T20:28:54.648Z,22.00
2019-06-26T20:31:23.099Z,21.80
2019-06-26T20:33:51.548Z,21.70
2019-06-26T20:36:20.154Z,21.70
2019-06-26T20:42:17.496Z,21.60
2019-06-26T20:44:45.923Z,21.50
2019-06-26T20:47:14.448Z,21.30
2019-06-26T20:49:52.766Z,21.20
2019-06-26T20:52:13.059Z,21.00
2019-06-26T20:54:41.502Z,20.90
2019-06-26T20:57:09.962Z,20.70
2019-06-26T20:59:38.386Z,20.60
2019-06-26T21:02:07.137Z,20.60
2019-06-26T21:04:35.568Z,20.50
2019-06-26T21:07:03.994Z,20.40
2019-06-26T21:13:01.600Z,20.30
2019-06-26T21:15:30.029Z,20.20
2019-06-26T21:17:58.474Z,20.20
2019-06-26T21:20:26.940Z,20.00
2019-06-26T21:22:55.382Z,19.90
2019-06-26T21:25:23.832Z,19.90
2019-06-26T21:27:52.256Z,19.80
2019-06-26T21:30:21.212Z,19.60
2019-06-26T21:32:49.634Z,19.50
2019-06-26T21:35:18.385Z,19.20
2019-06-26T21:37:46.918Z,19.00
2019-06-26T21:40:15.417Z,18.90
2019-06-26T21:42:43.876Z,18.70
2019-06-26T21:45:12.741Z,18.50
2019-06-26T21:47:41.188Z,18.50
2019-06-26T21:50:09.780Z,18.40
2019-06-26T21:52:38.196Z,18.30
2019-06-26T21:55:06.932Z,18.20
2019-06-26T21:57:35.386Z,18.20
2019-06-26T22:00:06.724Z,18.20
2019-06-26T22:02:35.215Z,18.10
2019-06-26T22:05:05.306Z,18.10
2019-06-26T22:07:33.725Z,18.10
2019-06-26T22:10:02.352Z,17.90
2019-06-26T22:12:30.825Z,17.90
2019-06-26T22:14:59.247Z,17.90
2019-06-26T22:20:56.720Z,17.80
2019-06-26T22:23:25.172Z,17.80
2019-06-26T22:25:53.596Z,17.70
2019-06-26T22:28:22.059Z,17.60
2019-06-26T22:30:50.558Z,17.50
2019-06-26T22:33:19.177Z,17.40
2019-06-26T22:35:47.615Z,17.40
2019-06-26T22:38:16.044Z,17.40
2019-06-26T22:40:44.501Z,17.30
2019-06-26T22:43:12.923Z,17.40
2019-06-26T22:45:41.846Z,17.40
2019-06-26T22:48:10.332Z,17.40
2019-06-26T22:50:38.786Z,17.30
2019-06-26T22:53:07.255Z,17.30
2019-06-26T22:55:35.746Z,17.30
2019-06-26T22:58:04.174Z,17.30
2019-06-26T23:00:32.709Z,17.30
2019-06-26T23:03:01.201Z,17.30
2019-06-26T23:05:29.698Z,17.30
2019-06-26T23:07:58.138Z,17.20
2019-06-26T23:10:26.766Z,17.20
2019-06-26T23:12:55.469Z,17.10
2019-06-26T23:15:23.932Z,17.10
2019-06-26T23:17:52.527Z,17.00
2019-06-26T23:20:21.402Z,17.00
2019-06-26T23:22:50.200Z,17.00
2019-06-26T23:25:18.783Z,16.90
2019-06-26T23:27:47.333Z,16.80
2019-06-26T23:30:19.510Z,16.70
2019-06-26T23:32:48.024Z,16.70
2019-06-26T23:35:16.725Z,16.70
2019-06-26T23:37:45.155Z,16.80
2019-06-26T23:40:13.724Z,16.70
2019-06-26T23:42:42.190Z,16.80
2019-06-26T23:45:11.489Z,16.70
2019-06-26T23:47:40.018Z,16.80
2019-06-26T23:50:08.813Z,16.90
2019-06-26T23:52:37.241Z,17.00
2019-06-26T23:55:06.832Z,16.90
2019-06-26T23:57:35.273Z,16.90
